sensor_id;sensor_type;location;lat;lon;timestamp;P1;durP1;ratioP1;P2;durP2;ratioP2
956;SDS011;465;48.802;9.224;2022-11-02T00:01:53;12.63;;;10.07;;
956;SDS011;465;48.802;9.224;2022-11-02T00:04:21;12.37;;;9.57;;
956;SDS011;465;48.802;9.224;2022-11-02T00:06:48;18.10;;;10.50;;
956;SDS011;465;48.802;9.224;2022-11-02T00:09:14;16.40;;;9.87;;
956;SDS011;465;48.802;9.224;2022-11-02T00:11:41;16.20;;;9.97;;
956;SDS011;465;48.802;9.224;2022-11-02T00:14:08;18.17;;;11.47;;
956;SDS011;465;48.802;9.224;2022-11-02T00:16:35;11.00;;;8.93;;
956;SDS011;465;48.802;9.224;2022-11-02T00:19:03;14.03;;;9.93;;
956;SDS011;465;48.802;9.224;2022-11-02T00:21:31;12.37;;;10.13;;
956;SDS011;465;48.802;9.224;2022-11-02T00:23:58;11.10;;;8.80;;
956;SDS011;465;48.802;9.224;2022-11-02T00:26:26;9.10;;;8.20;;
956;SDS011;465;48.802;9.224;2022-11-02T00:28:53;13.57;;;8.17;;
956;SDS011;465;48.802;9.224;2022-11-02T00:31:20;14.17;;;8.37;;
956;SDS011;465;48.802;9.224;2022-11-02T00:33:47;10.40;;;8.60;;
956;SDS011;465;48.802;9.224;2022-11-02T00:36:14;10.90;;;8.17;;
956;SDS011;465;48.802;9.224;2022-11-02T00:38:42;13.40;;;9.27;;
956;SDS011;465;48.802;9.224;2022-11-02T00:41:09;10.27;;;8.87;;
956;SDS011;465;48.802;9.224;2022-11-02T00:43:36;10.27;;;8.10;;
956;SDS011;465;48.802;9.224;2022-11-02T00:46:03;12.33;;;7.80;;
956;SDS011;465;48.802;9.224;2022-11-02T00:48:30;16.53;;;8.10;;
956;SDS011;465;48.802;9.224;2022-11-02T00:50:57;12.13;;;8.50;;
956;SDS011;465;48.802;9.224;2022-11-02T00:53:24;11.23;;;7.23;;
956;SDS011;465;48.802;9.224;2022-11-02T00:55:52;17.23;;;8.37;;
956;SDS011;465;48.802;9.224;2022-11-02T00:58:19;11.77;;;8.47;;
956;SDS011;465;48.802;9.224;2022-11-02T01:00:45;11.90;;;8.10;;
956;SDS011;465;48.802;9.224;2022-11-02T01:03:12;9.13;;;7.43;;
956;SDS011;465;48.802;9.224;2022-11-02T01:05:39;12.33;;;7.83;;
956;SDS011;465;48.802;9.224;2022-11-02T01:08:06;13.00;;;8.60;;
956;SDS011;465;48.802;9.224;2022-11-02T01:10:33;12.60;;;7.60;;
956;SDS011;465;48.802;9.224;2022-11-02T01:13:01;13.63;;;9.67;;
956;SDS011;465;48.802;9.224;2022-11-02T01:15:28;13.03;;;7.27;;
956;SDS011;465;48.802;9.224;2022-11-02T01:17:55;8.27;;;6.70;;
956;SDS011;465;48.802;9.224;2022-11-02T01:20:22;8.47;;;6.47;;
956;SDS011;465;48.802;9.224;2022-11-02T01:22:49;11.83;;;6.93;;
956;SDS011;465;48.802;9.224;2022-11-02T01:25:15;10.13;;;8.03;;
956;SDS011;465;48.802;9.224;2022-11-02T01:27:42;10.27;;;6.60;;
956;SDS011;465;48.802;9.224;2022-11-02T01:30:11;15.27;;;6.70;;
956;SDS011;465;48.802;9.224;2022-11-02T01:32:38;10.83;;;6.93;;
956;SDS011;465;48.802;9.224;2022-11-02T01:35:05;12.67;;;7.50;;
956;SDS011;465;48.802;9.224;2022-11-02T01:37:32;12.20;;;7.13;;
956;SDS011;465;48.802;9.224;2022-11-02T01:39:59;8.30;;;6.87;;
956;SDS011;465;48.802;9.224;2022-11-02T01:42:26;12.10;;;6.97;;
956;SDS011;465;48.802;9.224;2022-11-02T01:44:53;15.40;;;7.93;;
956;SDS011;465;48.802;9.224;2022-11-02T01:47:22;14.60;;;7.10;;
956;SDS011;465;48.802;9.224;2022-11-02T01:49:52;10.67;;;7.70;;
956;SDS011;465;48.802;9.224;2022-11-02T01:52:23;8.90;;;6.63;;
956;SDS011;465;48.802;9.224;2022-11-02T01:54:54;13.77;;;8.03;;
956;SDS011;465;48.802;9.224;2022-11-02T01:57:24;10.87;;;8.80;;
956;SDS011;465;48.802;9.224;2022-11-02T01:59:54;8.13;;;7.17;;
956;SDS011;465;48.802;9.224;2022-11-02T02:02:26;10.53;;;7.20;;
956;SDS011;465;48.802;9.224;2022-11-02T02:04:54;15.57;;;7.53;;
956;SDS011;465;48.802;9.224;2022-11-02T02:07:26;11.77;;;7.77;;
956;SDS011;465;48.802;9.224;2022-11-02T02:09:55;9.83;;;7.80;;
956;SDS011;465;48.802;9.224;2022-11-02T02:12:22;7.30;;;6.60;;
956;SDS011;465;48.802;9.224;2022-11-02T02:14:50;13.30;;;7.50;;
956;SDS011;465;48.802;9.224;2022-11-02T02:17:31;11.43;;;6.83;;
956;SDS011;465;48.802;9.224;2022-11-02T02:20:07;9.70;;;6.80;;
956;SDS011;465;48.802;9.224;2022-11-02T02:28:42;10.17;;;7.83;;
956;SDS011;465;48.802;9.224;2022-11-02T02:31:15;8.77;;;7.93;;
956;SDS011;465;48.802;9.224;2022-11-02T02:33:48;14.57;;;7.20;;
956;SDS011;465;48.802;9.224;2022-11-02T02:36:21;11.47;;;6.60;;
956;SDS011;465;48.802;9.224;2022-11-02T02:38:55;8.17;;;7.07;;
956;SDS011;465;48.802;9.224;2022-11-02T02:41:29;8.40;;;6.30;;
956;SDS011;465;48.802;9.224;2022-11-02T02:44:04;9.47;;;6.77;;
956;SDS011;465;48.802;9.224;2022-11-02T02:46:35;10.33;;;7.40;;
956;SDS011;465;48.802;9.224;2022-11-02T02:49:09;9.90;;;7.53;;
956;SDS011;465;48.802;9.224;2022-11-02T02:51:43;9.97;;;7.40;;
956;SDS011;465;48.802;9.224;2022-11-02T02:54:13;10.27;;;6.63;;
956;SDS011;465;48.802;9.224;2022-11-02T02:56:45;9.73;;;8.73;;
956;SDS011;465;48.802;9.224;2022-11-02T02:59:17;9.70;;;5.80;;
956;SDS011;465;48.802;9.224;2022-11-02T03:01:47;8.37;;;6.17;;
956;SDS011;465;48.802;9.224;2022-11-02T03:04:15;8.40;;;6.80;;
956;SDS011;465;48.802;9.224;2022-11-02T03:06:42;10.97;;;8.27;;
956;SDS011;465;48.802;9.224;2022-11-02T03:09:14;8.13;;;6.30;;
956;SDS011;465;48.802;9.224;2022-11-02T03:11:50;9.97;;;7.40;;
956;SDS011;465;48.802;9.224;2022-11-02T03:14:30;9.40;;;7.37;;
956;SDS011;465;48.802;9.224;2022-11-02T03:17:05;9.80;;;6.90;;
956;SDS011;465;48.802;9.224;2022-11-02T03:19:41;10.87;;;7.47;;
956;SDS011;465;48.802;9.224;2022-11-02T03:22:17;10.97;;;7.10;;
956;SDS011;465;48.802;9.224;2022-11-02T03:24:54;10.57;;;7.23;;
956;SDS011;465;48.802;9.224;2022-11-02T03:27:28;9.73;;;6.60;;
956;SDS011;465;48.802;9.224;2022-11-02T03:30:06;10.90;;;7.30;;
956;SDS011;465;48.802;9.224;2022-11-02T03:32:37;10.27;;;7.50;;
956;SDS011;465;48.802;9.224;2022-11-02T03:35:11;9.90;;;7.00;;
956;SDS011;465;48.802;9.224;2022-11-02T03:37:45;8.30;;;7.30;;
956;SDS011;465;48.802;9.224;2022-11-02T03:40:18;9.13;;;8.23;;
956;SDS011;465;48.802;9.224;2022-11-02T03:42:50;10.33;;;7.50;;
956;SDS011;465;48.802;9.224;2022-11-02T03:45:21;14.00;;;7.70;;
956;SDS011;465;48.802;9.224;2022-11-02T03:47:51;14.63;;;7.70;;
956;SDS011;465;48.802;9.224;2022-11-02T03:50:21;10.23;;;7.63;;
956;SDS011;465;48.802;9.224;2022-11-02T03:52:53;9.23;;;8.13;;
956;SDS011;465;48.802;9.224;2022-11-02T03:55:25;9.50;;;8.00;;
956;SDS011;465;48.802;9.224;2022-11-02T03:57:56;9.07;;;7.40;;
956;SDS011;465;48.802;9.224;2022-11-02T04:00:26;7.50;;;6.80;;
956;SDS011;465;48.802;9.224;2022-11-02T04:02:56;13.97;;;8.40;;
956;SDS011;465;48.802;9.224;2022-11-02T04:05:27;7.33;;;6.57;;
956;SDS011;465;48.802;9.224;2022-11-02T04:07:54;10.23;;;7.17;;
956;SDS011;465;48.802;9.224;2022-11-02T04:10:39;10.57;;;6.80;;
956;SDS011;465;48.802;9.224;2022-11-02T04:13:26;11.93;;;7.20;;
956;SDS011;465;48.802;9.224;2022-11-02T04:16:12;13.13;;;7.60;;
956;SDS011;465;48.802;9.224;2022-11-02T04:18:40;11.10;;;7.50;;
956;SDS011;465;48.802;9.224;2022-11-02T04:21:24;12.73;;;8.50;;
956;SDS011;465;48.802;9.224;2022-11-02T04:23:51;16.47;;;9.97;;
956;SDS011;465;48.802;9.224;2022-11-02T04:26:36;13.40;;;8.33;;
956;SDS011;465;48.802;9.224;2022-11-02T04:29:03;20.57;;;10.10;;
956;SDS011;465;48.802;9.224;2022-11-02T04:31:31;19.43;;;10.70;;
956;SDS011;465;48.802;9.224;2022-11-02T04:33:58;19.10;;;11.50;;
956;SDS011;465;48.802;9.224;2022-11-02T04:36:36;19.63;;;11.47;;
956;SDS011;465;48.802;9.224;2022-11-02T04:39:05;16.23;;;10.97;;
956;SDS011;465;48.802;9.224;2022-11-02T04:41:30;14.63;;;10.77;;
956;SDS011;465;48.802;9.224;2022-11-02T04:44:09;14.37;;;9.80;;
956;SDS011;465;48.802;9.224;2022-11-02T04:46:40;15.50;;;9.80;;
956;SDS011;465;48.802;9.224;2022-11-02T04:49:08;15.13;;;10.13;;
956;SDS011;465;48.802;9.224;2022-11-02T04:51:36;19.30;;;10.90;;
956;SDS011;465;48.802;9.224;2022-11-02T04:54:05;15.53;;;9.27;;
956;SDS011;465;48.802;9.224;2022-11-02T04:56:32;14.67;;;9.77;;
956;SDS011;465;48.802;9.224;2022-11-02T04:59:00;12.50;;;9.13;;
956;SDS011;465;48.802;9.224;2022-11-02T05:01:27;13.30;;;9.37;;
956;SDS011;465;48.802;9.224;2022-11-02T05:03:56;17.53;;;9.07;;
956;SDS011;465;48.802;9.224;2022-11-02T05:06:23;19.33;;;10.80;;
956;SDS011;465;48.802;9.224;2022-11-02T05:08:50;11.73;;;8.80;;
956;SDS011;465;48.802;9.224;2022-11-02T05:11:17;13.60;;;9.57;;
956;SDS011;465;48.802;9.224;2022-11-02T05:13:45;15.43;;;9.53;;
956;SDS011;465;48.802;9.224;2022-11-02T05:16:12;10.40;;;8.30;;
956;SDS011;465;48.802;9.224;2022-11-02T05:18:40;12.43;;;9.00;;
956;SDS011;465;48.802;9.224;2022-11-02T05:21:09;12.60;;;8.60;;
956;SDS011;465;48.802;9.224;2022-11-02T05:23:36;11.90;;;9.07;;
956;SDS011;465;48.802;9.224;2022-11-02T05:26:04;13.23;;;9.57;;
956;SDS011;465;48.802;9.224;2022-11-02T05:28:32;18.73;;;10.23;;
956;SDS011;465;48.802;9.224;2022-11-02T05:30:59;20.33;;;9.07;;
956;SDS011;465;48.802;9.224;2022-11-02T05:33:27;16.17;;;9.77;;
956;SDS011;465;48.802;9.224;2022-11-02T05:35:54;20.60;;;8.13;;
956;SDS011;465;48.802;9.224;2022-11-02T05:38:22;16.03;;;8.50;;
956;SDS011;465;48.802;9.224;2022-11-02T05:40:52;16.50;;;9.80;;
956;SDS011;465;48.802;9.224;2022-11-02T05:43:20;12.70;;;8.40;;
956;SDS011;465;48.802;9.224;2022-11-02T05:45:50;19.03;;;9.37;;
956;SDS011;465;48.802;9.224;2022-11-02T05:48:19;14.37;;;9.13;;
956;SDS011;465;48.802;9.224;2022-11-02T05:50:46;15.80;;;8.07;;
956;SDS011;465;48.802;9.224;2022-11-02T05:53:13;15.87;;;9.20;;
956;SDS011;465;48.802;9.224;2022-11-02T05:55:46;14.57;;;8.90;;
956;SDS011;465;48.802;9.224;2022-11-02T05:58:12;21.73;;;11.17;;
956;SDS011;465;48.802;9.224;2022-11-02T06:00:39;19.87;;;11.73;;
956;SDS011;465;48.802;9.224;2022-11-02T06:03:06;19.37;;;11.00;;
956;SDS011;465;48.802;9.224;2022-11-02T06:05:33;20.50;;;12.00;;
956;SDS011;465;48.802;9.224;2022-11-02T06:08:00;16.73;;;10.97;;
956;SDS011;465;48.802;9.224;2022-11-02T06:10:27;15.17;;;10.33;;
956;SDS011;465;48.802;9.224;2022-11-02T06:12:57;14.10;;;10.20;;
956;SDS011;465;48.802;9.224;2022-11-02T06:15:25;10.47;;;9.20;;
956;SDS011;465;48.802;9.224;2022-11-02T06:17:53;17.57;;;8.77;;
956;SDS011;465;48.802;9.224;2022-11-02T06:20:20;11.83;;;7.70;;
956;SDS011;465;48.802;9.224;2022-11-02T06:22:47;16.33;;;9.33;;
956;SDS011;465;48.802;9.224;2022-11-02T06:25:15;11.10;;;8.90;;
956;SDS011;465;48.802;9.224;2022-11-02T06:27:48;13.30;;;7.87;;
956;SDS011;465;48.802;9.224;2022-11-02T06:30:21;16.33;;;9.30;;
956;SDS011;465;48.802;9.224;2022-11-02T06:32:49;20.17;;;8.90;;
956;SDS011;465;48.802;9.224;2022-11-02T06:35:18;18.07;;;9.20;;
956;SDS011;465;48.802;9.224;2022-11-02T06:37:46;17.43;;;9.03;;
956;SDS011;465;48.802;9.224;2022-11-02T06:40:13;22.90;;;9.80;;
956;SDS011;465;48.802;9.224;2022-11-02T06:42:40;13.63;;;9.00;;
956;SDS011;465;48.802;9.224;2022-11-02T06:45:07;22.33;;;10.37;;
956;SDS011;465;48.802;9.224;2022-11-02T06:47:37;16.03;;;9.60;;
956;SDS011;465;48.802;9.224;2022-11-02T06:50:05;17.17;;;10.00;;
956;SDS011;465;48.802;9.224;2022-11-02T06:52:32;18.40;;;9.73;;
956;SDS011;465;48.802;9.224;2022-11-02T06:55:00;16.80;;;9.47;;
956;SDS011;465;48.802;9.224;2022-11-02T06:57:27;17.20;;;9.40;;
956;SDS011;465;48.802;9.224;2022-11-02T06:59:54;14.67;;;8.70;;
956;SDS011;465;48.802;9.224;2022-11-02T07:02:27;15.93;;;9.43;;
956;SDS011;465;48.802;9.224;2022-11-02T07:04:56;13.60;;;8.40;;
956;SDS011;465;48.802;9.224;2022-11-02T07:07:23;13.63;;;7.37;;
956;SDS011;465;48.802;9.224;2022-11-02T07:09:49;14.73;;;8.40;;
956;SDS011;465;48.802;9.224;2022-11-02T07:12:16;21.63;;;8.13;;
956;SDS011;465;48.802;9.224;2022-11-02T07:14:43;15.37;;;8.93;;
956;SDS011;465;48.802;9.224;2022-11-02T07:17:10;21.13;;;8.40;;
956;SDS011;465;48.802;9.224;2022-11-02T07:19:36;9.60;;;6.97;;
956;SDS011;465;48.802;9.224;2022-11-02T07:22:04;12.10;;;6.10;;
956;SDS011;465;48.802;9.224;2022-11-02T07:24:31;12.03;;;6.20;;
956;SDS011;465;48.802;9.224;2022-11-02T07:26:58;10.87;;;6.97;;
956;SDS011;465;48.802;9.224;2022-11-02T07:29:26;13.70;;;6.03;;
956;SDS011;465;48.802;9.224;2022-11-02T07:31:53;13.80;;;6.90;;
956;SDS011;465;48.802;9.224;2022-11-02T07:34:19;9.60;;;6.23;;
956;SDS011;465;48.802;9.224;2022-11-02T07:36:46;10.60;;;5.83;;
956;SDS011;465;48.802;9.224;2022-11-02T07:39:14;11.70;;;6.30;;
956;SDS011;465;48.802;9.224;2022-11-02T07:41:42;12.40;;;4.70;;
956;SDS011;465;48.802;9.224;2022-11-02T07:44:09;12.00;;;5.30;;
956;SDS011;465;48.802;9.224;2022-11-02T07:46:36;18.50;;;6.20;;
956;SDS011;465;48.802;9.224;2022-11-02T07:49:03;11.53;;;5.90;;
956;SDS011;465;48.802;9.224;2022-11-02T07:51:30;12.97;;;7.80;;
956;SDS011;465;48.802;9.224;2022-11-02T07:53:56;10.60;;;5.17;;
956;SDS011;465;48.802;9.224;2022-11-02T07:56:26;11.90;;;4.57;;
956;SDS011;465;48.802;9.224;2022-11-02T07:58:53;9.77;;;4.70;;
956;SDS011;465;48.802;9.224;2022-11-02T08:01:19;12.13;;;5.00;;
956;SDS011;465;48.802;9.224;2022-11-02T08:03:47;10.90;;;4.57;;
956;SDS011;465;48.802;9.224;2022-11-02T08:06:14;11.07;;;4.73;;
956;SDS011;465;48.802;9.224;2022-11-02T08:08:40;7.70;;;4.37;;
956;SDS011;465;48.802;9.224;2022-11-02T08:11:08;8.37;;;5.27;;
956;SDS011;465;48.802;9.224;2022-11-02T08:13:39;9.70;;;5.10;;
956;SDS011;465;48.802;9.224;2022-11-02T08:16:07;11.03;;;4.23;;
956;SDS011;465;48.802;9.224;2022-11-02T08:18:34;12.47;;;4.53;;
956;SDS011;465;48.802;9.224;2022-11-02T08:21:02;9.20;;;4.97;;
956;SDS011;465;48.802;9.224;2022-11-02T08:23:28;5.70;;;3.50;;
956;SDS011;465;48.802;9.224;2022-11-02T08:25:57;7.33;;;3.10;;
956;SDS011;465;48.802;9.224;2022-11-02T08:28:25;10.83;;;4.77;;
956;SDS011;465;48.802;9.224;2022-11-02T08:30:56;9.50;;;4.03;;
956;SDS011;465;48.802;9.224;2022-11-02T08:33:23;8.40;;;3.50;;
956;SDS011;465;48.802;9.224;2022-11-02T08:35:50;10.93;;;4.37;;
956;SDS011;465;48.802;9.224;2022-11-02T08:38:17;10.63;;;4.80;;
956;SDS011;465;48.802;9.224;2022-11-02T08:40:46;14.60;;;4.50;;
956;SDS011;465;48.802;9.224;2022-11-02T08:43:14;10.60;;;4.40;;
956;SDS011;465;48.802;9.224;2022-11-02T08:45:41;15.93;;;4.43;;
956;SDS011;465;48.802;9.224;2022-11-02T08:48:10;10.67;;;4.63;;
956;SDS011;465;48.802;9.224;2022-11-02T08:50:37;11.73;;;4.10;;
956;SDS011;465;48.802;9.224;2022-11-02T08:53:04;8.60;;;3.97;;
956;SDS011;465;48.802;9.224;2022-11-02T08:55:31;8.27;;;3.30;;
956;SDS011;465;48.802;9.224;2022-11-02T08:57:58;6.77;;;2.83;;
956;SDS011;465;48.802;9.224;2022-11-02T09:00:26;8.23;;;3.27;;
956;SDS011;465;48.802;9.224;2022-11-02T09:02:58;8.97;;;2.37;;
956;SDS011;465;48.802;9.224;2022-11-02T09:05:27;7.10;;;3.40;;
956;SDS011;465;48.802;9.224;2022-11-02T09:07:55;5.00;;;2.67;;
956;SDS011;465;48.802;9.224;2022-11-02T09:10:23;9.20;;;3.40;;
956;SDS011;465;48.802;9.224;2022-11-02T09:12:50;4.33;;;2.33;;
956;SDS011;465;48.802;9.224;2022-11-02T09:15:17;4.87;;;2.50;;
956;SDS011;465;48.802;9.224;2022-11-02T09:17:45;9.57;;;2.57;;
956;SDS011;465;48.802;9.224;2022-11-02T09:20:13;5.10;;;2.43;;
956;SDS011;465;48.802;9.224;2022-11-02T09:22:41;10.70;;;2.70;;
956;SDS011;465;48.802;9.224;2022-11-02T09:25:08;5.87;;;2.03;;
956;SDS011;465;48.802;9.224;2022-11-02T09:27:35;8.87;;;2.70;;
956;SDS011;465;48.802;9.224;2022-11-02T09:30:03;7.47;;;2.17;;
956;SDS011;465;48.802;9.224;2022-11-02T09:32:30;5.50;;;2.50;;
956;SDS011;465;48.802;9.224;2022-11-02T09:34:57;5.57;;;2.37;;
956;SDS011;465;48.802;9.224;2022-11-02T09:37:24;6.73;;;2.73;;
956;SDS011;465;48.802;9.224;2022-11-02T09:39:53;5.07;;;2.07;;
956;SDS011;465;48.802;9.224;2022-11-02T09:42:21;7.53;;;2.80;;
956;SDS011;465;48.802;9.224;2022-11-02T09:44:52;7.17;;;2.57;;
956;SDS011;465;48.802;9.224;2022-11-02T09:47:23;5.50;;;1.60;;
956;SDS011;465;48.802;9.224;2022-11-02T09:49:53;7.63;;;2.80;;
956;SDS011;465;48.802;9.224;2022-11-02T09:52:24;4.07;;;1.83;;
956;SDS011;465;48.802;9.224;2022-11-02T09:54:57;8.20;;;3.03;;
956;SDS011;465;48.802;9.224;2022-11-02T09:57:27;4.43;;;1.50;;
956;SDS011;465;48.802;9.224;2022-11-02T09:59:55;7.10;;;2.37;;
956;SDS011;465;48.802;9.224;2022-11-02T10:02:24;6.13;;;2.27;;
956;SDS011;465;48.802;9.224;2022-11-02T10:05:00;5.20;;;2.13;;
956;SDS011;465;48.802;9.224;2022-11-02T10:07:49;8.20;;;2.67;;
956;SDS011;465;48.802;9.224;2022-11-02T10:10:32;5.87;;;2.80;;
956;SDS011;465;48.802;9.224;2022-11-02T10:13:05;8.80;;;2.20;;
956;SDS011;465;48.802;9.224;2022-11-02T10:15:41;6.87;;;3.00;;
956;SDS011;465;48.802;9.224;2022-11-02T10:18:13;8.83;;;3.60;;
956;SDS011;465;48.802;9.224;2022-11-02T10:20:44;5.73;;;2.90;;
956;SDS011;465;48.802;9.224;2022-11-02T10:23:13;14.13;;;3.70;;
956;SDS011;465;48.802;9.224;2022-11-02T10:25:47;4.50;;;2.00;;
956;SDS011;465;48.802;9.224;2022-11-02T10:28:15;4.33;;;2.20;;
956;SDS011;465;48.802;9.224;2022-11-02T10:30:45;5.30;;;2.60;;
956;SDS011;465;48.802;9.224;2022-11-02T10:33:12;2.63;;;1.73;;
956;SDS011;465;48.802;9.224;2022-11-02T10:35:44;8.47;;;2.20;;
956;SDS011;465;48.802;9.224;2022-11-02T10:38:18;7.07;;;3.07;;
956;SDS011;465;48.802;9.224;2022-11-02T10:44:11;9.27;;;2.23;;
956;SDS011;465;48.802;9.224;2022-11-02T10:46:52;6.57;;;1.67;;
956;SDS011;465;48.802;9.224;2022-11-02T10:49:35;6.07;;;2.23;;
956;SDS011;465;48.802;9.224;2022-11-02T10:52:16;6.73;;;1.93;;
956;SDS011;465;48.802;9.224;2022-11-02T10:54:43;7.47;;;1.77;;
956;SDS011;465;48.802;9.224;2022-11-02T10:57:12;8.60;;;2.57;;
956;SDS011;465;48.802;9.224;2022-11-02T10:59:41;5.70;;;2.43;;
956;SDS011;465;48.802;9.224;2022-11-02T11:02:09;5.83;;;2.00;;
956;SDS011;465;48.802;9.224;2022-11-02T11:04:38;10.60;;;2.43;;
956;SDS011;465;48.802;9.224;2022-11-02T11:07:10;7.10;;;2.60;;
956;SDS011;465;48.802;9.224;2022-11-02T11:09:44;10.10;;;2.80;;
956;SDS011;465;48.802;9.224;2022-11-02T11:12:17;5.90;;;2.70;;
956;SDS011;465;48.802;9.224;2022-11-02T11:14:47;14.63;;;3.80;;
956;SDS011;465;48.802;9.224;2022-11-02T11:17:17;6.00;;;2.37;;
956;SDS011;465;48.802;9.224;2022-11-02T11:19:47;9.80;;;4.13;;
956;SDS011;465;48.802;9.224;2022-11-02T11:22:26;6.63;;;2.30;;
956;SDS011;465;48.802;9.224;2022-11-02T11:25:13;10.43;;;2.83;;
956;SDS011;465;48.802;9.224;2022-11-02T11:27:48;7.73;;;2.40;;
956;SDS011;465;48.802;9.224;2022-11-02T11:30:22;5.10;;;2.00;;
956;SDS011;465;48.802;9.224;2022-11-02T11:32:50;6.37;;;2.40;;
956;SDS011;465;48.802;9.224;2022-11-02T11:35:18;6.60;;;2.40;;
956;SDS011;465;48.802;9.224;2022-11-02T11:37:46;7.30;;;2.90;;
956;SDS011;465;48.802;9.224;2022-11-02T11:40:15;6.43;;;2.80;;
956;SDS011;465;48.802;9.224;2022-11-02T11:42:44;9.17;;;2.80;;
956;SDS011;465;48.802;9.224;2022-11-02T11:45:16;5.37;;;2.60;;
956;SDS011;465;48.802;9.224;2022-11-02T11:47:46;5.10;;;2.53;;
956;SDS011;465;48.802;9.224;2022-11-02T11:50:18;7.70;;;2.20;;
956;SDS011;465;48.802;9.224;2022-11-02T11:52:45;4.30;;;1.77;;
956;SDS011;465;48.802;9.224;2022-11-02T11:55:19;7.17;;;1.63;;
956;SDS011;465;48.802;9.224;2022-11-02T12:00:40;3.92;;;2.45;;
956;SDS011;465;48.802;9.224;2022-11-02T12:03:08;5.40;;;1.97;;
956;SDS011;465;48.802;9.224;2022-11-02T12:05:37;6.27;;;2.10;;
956;SDS011;465;48.802;9.224;2022-11-02T12:08:18;5.30;;;1.70;;
956;SDS011;465;48.802;9.224;2022-11-02T12:10:54;7.07;;;1.63;;
956;SDS011;465;48.802;9.224;2022-11-02T12:13:34;5.90;;;2.10;;
956;SDS011;465;48.802;9.224;2022-11-02T12:16:14;5.57;;;2.63;;
956;SDS011;465;48.802;9.224;2022-11-02T12:18:52;3.87;;;2.00;;
956;SDS011;465;48.802;9.224;2022-11-02T12:21:42;6.13;;;2.40;;
956;SDS011;465;48.802;9.224;2022-11-02T12:24:22;4.23;;;2.30;;
956;SDS011;465;48.802;9.224;2022-11-02T12:27:06;7.63;;;3.07;;
956;SDS011;465;48.802;9.224;2022-11-02T12:29:49;7.70;;;4.20;;
956;SDS011;465;48.802;9.224;2022-11-02T12:32:31;11.93;;;6.23;;
956;SDS011;465;48.802;9.224;2022-11-02T12:35:08;8.47;;;3.23;;
956;SDS011;465;48.802;9.224;2022-11-02T12:37:51;8.23;;;3.27;;
956;SDS011;465;48.802;9.224;2022-11-02T12:40:44;5.57;;;1.87;;
956;SDS011;465;48.802;9.224;2022-11-02T12:43:27;4.17;;;2.13;;
956;SDS011;465;48.802;9.224;2022-11-02T12:46:03;7.67;;;2.43;;
956;SDS011;465;48.802;9.224;2022-11-02T12:48:48;7.40;;;2.80;;
956;SDS011;465;48.802;9.224;2022-11-02T12:51:23;7.10;;;3.03;;
956;SDS011;465;48.802;9.224;2022-11-02T12:53:54;4.10;;;2.07;;
956;SDS011;465;48.802;9.224;2022-11-02T12:56:23;6.60;;;2.60;;
956;SDS011;465;48.802;9.224;2022-11-02T12:58:54;4.97;;;1.60;;
956;SDS011;465;48.802;9.224;2022-11-02T13:01:23;6.10;;;2.47;;
956;SDS011;465;48.802;9.224;2022-11-02T13:03:55;5.80;;;1.87;;
956;SDS011;465;48.802;9.224;2022-11-02T13:06:28;7.43;;;1.73;;
956;SDS011;465;48.802;9.224;2022-11-02T13:09:01;5.23;;;1.83;;
956;SDS011;465;48.802;9.224;2022-11-02T13:11:33;7.90;;;3.63;;
956;SDS011;465;48.802;9.224;2022-11-02T13:14:04;6.27;;;2.47;;
956;SDS011;465;48.802;9.224;2022-11-02T13:16:38;6.07;;;2.47;;
956;SDS011;465;48.802;9.224;2022-11-02T13:19:13;4.60;;;2.10;;
956;SDS011;465;48.802;9.224;2022-11-02T13:21:44;7.60;;;2.70;;
956;SDS011;465;48.802;9.224;2022-11-02T13:24:18;6.10;;;2.40;;
956;SDS011;465;48.802;9.224;2022-11-02T13:26:48;6.93;;;3.10;;
956;SDS011;465;48.802;9.224;2022-11-02T13:29:18;6.20;;;2.70;;
956;SDS011;465;48.802;9.224;2022-11-02T13:31:49;9.10;;;3.00;;
956;SDS011;465;48.802;9.224;2022-11-02T13:34:21;7.50;;;1.90;;
956;SDS011;465;48.802;9.224;2022-11-02T13:36:56;6.50;;;1.90;;
956;SDS011;465;48.802;9.224;2022-11-02T13:39:25;3.93;;;2.10;;
956;SDS011;465;48.802;9.224;2022-11-02T13:42:04;7.43;;;3.33;;
956;SDS011;465;48.802;9.224;2022-11-02T13:47:42;5.47;;;3.17;;
956;SDS011;465;48.802;9.224;2022-11-02T13:50:21;10.43;;;3.40;;
956;SDS011;465;48.802;9.224;2022-11-02T13:52:51;5.00;;;2.80;;
956;SDS011;465;48.802;9.224;2022-11-02T13:55:23;8.80;;;2.67;;
956;SDS011;465;48.802;9.224;2022-11-02T13:57:58;10.43;;;3.70;;
956;SDS011;465;48.802;9.224;2022-11-02T14:00:27;8.47;;;3.00;;
956;SDS011;465;48.802;9.224;2022-11-02T14:02:57;8.60;;;3.07;;
956;SDS011;465;48.802;9.224;2022-11-02T14:05:30;5.33;;;2.50;;
956;SDS011;465;48.802;9.224;2022-11-02T14:07:59;8.13;;;3.23;;
956;SDS011;465;48.802;9.224;2022-11-02T14:10:28;8.97;;;3.83;;
956;SDS011;465;48.802;9.224;2022-11-02T14:12:58;9.60;;;3.17;;
956;SDS011;465;48.802;9.224;2022-11-02T14:18:26;6.07;;;2.47;;
956;SDS011;465;48.802;9.224;2022-11-02T14:20:56;11.33;;;3.00;;
956;SDS011;465;48.802;9.224;2022-11-02T14:23:34;8.57;;;2.70;;
956;SDS011;465;48.802;9.224;2022-11-02T14:28:56;7.37;;;3.43;;
956;SDS011;465;48.802;9.224;2022-11-02T14:34:26;12.27;;;2.73;;
956;SDS011;465;48.802;9.224;2022-11-02T14:37:10;12.40;;;3.47;;
956;SDS011;465;48.802;9.224;2022-11-02T14:39:55;11.33;;;3.87;;
956;SDS011;465;48.802;9.224;2022-11-02T14:42:36;6.17;;;2.47;;
956;SDS011;465;48.802;9.224;2022-11-02T14:45:25;7.57;;;2.73;;
956;SDS011;465;48.802;9.224;2022-11-02T14:47:59;7.23;;;2.73;;
956;SDS011;465;48.802;9.224;2022-11-02T14:50:28;6.90;;;2.60;;
956;SDS011;465;48.802;9.224;2022-11-02T14:52:58;11.67;;;3.00;;
956;SDS011;465;48.802;9.224;2022-11-02T14:55:29;7.73;;;3.67;;
956;SDS011;465;48.802;9.224;2022-11-02T14:57:57;8.20;;;3.27;;
956;SDS011;465;48.802;9.224;2022-11-02T15:00:29;9.57;;;3.00;;
956;SDS011;465;48.802;9.224;2022-11-02T15:03:00;6.57;;;2.90;;
956;SDS011;465;48.802;9.224;2022-11-02T15:05:30;12.33;;;4.00;;
956;SDS011;465;48.802;9.224;2022-11-02T15:08:01;6.27;;;2.67;;
956;SDS011;465;48.802;9.224;2022-11-02T15:10:34;7.17;;;3.00;;
956;SDS011;465;48.802;9.224;2022-11-02T15:13:22;6.80;;;3.00;;
956;SDS011;465;48.802;9.224;2022-11-02T15:16:15;9.40;;;2.83;;
956;SDS011;465;48.802;9.224;2022-11-02T15:18:46;20.10;;;3.50;;
956;SDS011;465;48.802;9.224;2022-11-02T15:21:23;15.87;;;5.17;;
956;SDS011;465;48.802;9.224;2022-11-02T15:23:59;9.43;;;3.00;;
956;SDS011;465;48.802;9.224;2022-11-02T15:26:35;8.57;;;2.90;;
956;SDS011;465;48.802;9.224;2022-11-02T15:29:06;7.83;;;3.30;;
956;SDS011;465;48.802;9.224;2022-11-02T15:31:48;11.50;;;4.20;;
956;SDS011;465;48.802;9.224;2022-11-02T15:34:18;8.90;;;2.90;;
956;SDS011;465;48.802;9.224;2022-11-02T15:36:50;9.37;;;3.40;;
956;SDS011;465;48.802;9.224;2022-11-02T15:39:18;13.73;;;3.13;;
956;SDS011;465;48.802;9.224;2022-11-02T15:41:47;7.03;;;3.17;;
956;SDS011;465;48.802;9.224;2022-11-02T15:47:16;10.47;;;4.10;;
956;SDS011;465;48.802;9.224;2022-11-02T15:50:04;9.83;;;3.77;;
956;SDS011;465;48.802;9.224;2022-11-02T15:52:45;9.07;;;3.33;;
956;SDS011;465;48.802;9.224;2022-11-02T15:55:37;8.80;;;3.20;;
956;SDS011;465;48.802;9.224;2022-11-02T15:58:16;9.87;;;2.83;;
956;SDS011;465;48.802;9.224;2022-11-02T16:01:03;12.53;;;4.00;;
956;SDS011;465;48.802;9.224;2022-11-02T16:03:31;7.87;;;3.60;;
956;SDS011;465;48.802;9.224;2022-11-02T16:05:58;7.40;;;3.30;;
956;SDS011;465;48.802;9.224;2022-11-02T16:08:29;8.50;;;3.00;;
956;SDS011;465;48.802;9.224;2022-11-02T16:11:03;10.70;;;3.67;;
956;SDS011;465;48.802;9.224;2022-11-02T16:13:32;10.00;;;4.20;;
956;SDS011;465;48.802;9.224;2022-11-02T16:16:01;10.73;;;4.43;;
956;SDS011;465;48.802;9.224;2022-11-02T16:18:33;13.27;;;5.03;;
956;SDS011;465;48.802;9.224;2022-11-02T16:21:02;11.63;;;3.97;;
956;SDS011;465;48.802;9.224;2022-11-02T16:23:31;10.37;;;3.60;;
956;SDS011;465;48.802;9.224;2022-11-02T16:26:00;14.57;;;4.90;;
956;SDS011;465;48.802;9.224;2022-11-02T16:28:32;11.13;;;4.47;;